createdAt,value
2022-10-18T00:00:09.894Z,101569.90
2022-10-18T00:05:32.722Z,101572.57
2022-10-18T00:10:35.419Z,101571.58
2022-10-18T00:15:38.247Z,101570.45
2022-10-18T00:20:40.885Z,101565.21
2022-10-18T00:25:43.555Z,101559.30
2022-10-18T00:30:46.353Z,101550.43
2022-10-18T00:35:49.094Z,101544.71
2022-10-18T00:40:51.753Z,101544.62
2022-10-18T00:45:54.476Z,101544.05
2022-10-18T00:50:57.520Z,101546.16
2022-10-18T00:56:00.262Z,101539.31
2022-10-18T01:01:02.964Z,101533.18
2022-10-18T01:06:05.981Z,101529.05
2022-10-18T01:12:00.801Z,101525.17
2022-10-18T01:17:29.290Z,101507.62
2022-10-18T01:22:36.587Z,101494.34
2022-10-18T01:28:04.784Z,101490.58
2022-10-18T01:33:40.703Z,101478.55
2022-10-18T01:38:43.536Z,101479.11
2022-10-18T01:43:46.905Z,101479.57
2022-10-18T01:48:49.741Z,101477.42
2022-10-18T01:53:52.564Z,101474.89
2022-10-18T01:59:33.320Z,101475.67
2022-10-18T02:04:51.436Z,101471.83
2022-10-18T02:10:01.742Z,101474.01
2022-10-18T02:15:05.231Z,101478.33
2022-10-18T02:20:09.876Z,101480.90
2022-10-18T02:25:21.255Z,101474.52
2022-10-18T02:30:30.239Z,101475.21
2022-10-18T02:35:36.699Z,101478.80
2022-10-18T02:40:39.656Z,101475.34
2022-10-18T02:45:42.393Z,101469.77
2022-10-18T02:50:45.063Z,101474.23
2022-10-18T02:55:47.744Z,101476.75
2022-10-18T03:00:51.050Z,101474.95
2022-10-18T03:05:53.683Z,101475.53
2022-10-18T03:10:56.354Z,101477.03
2022-10-18T03:15:59.095Z,101476.36
2022-10-18T03:21:09.854Z,101475.96
2022-10-18T03:26:13.675Z,101475.23
2022-10-18T03:31:16.491Z,101474.45
2022-10-18T03:36:19.164Z,101473.93
2022-10-18T03:41:21.821Z,101471.43
2022-10-18T03:46:24.557Z,101466.92
2022-10-18T03:51:27.316Z,101465.73
2022-10-18T03:56:29.971Z,101468.30
2022-10-18T04:01:33.053Z,101465.30
2022-10-18T04:06:35.805Z,101463.84
2022-10-18T04:11:38.485Z,101464.53
2022-10-18T04:16:41.277Z,101469.39
2022-10-18T04:21:45.327Z,101470.94
2022-10-18T04:26:48.066Z,101473.85
2022-10-18T04:31:50.699Z,101469.09
2022-10-18T04:36:56.632Z,101473.17
2022-10-18T04:41:59.326Z,101473.96
2022-10-18T04:47:01.979Z,101476.45
2022-10-18T04:52:04.927Z,101475.04
2022-10-18T04:57:12.127Z,101476.44
2022-10-18T05:02:14.891Z,101476.48
2022-10-18T05:07:18.004Z,101481.40
2022-10-18T05:12:20.674Z,101483.27
2022-10-18T05:17:23.350Z,101488.00
2022-10-18T05:22:26.108Z,101487.61
2022-10-18T05:27:29.254Z,101488.25
2022-10-18T05:32:32.084Z,101491.20
2022-10-18T05:37:35.440Z,101499.20
2022-10-18T05:42:38.919Z,101508.60
2022-10-18T05:47:41.725Z,101509.83
2022-10-18T05:52:44.413Z,101506.02
2022-10-18T05:57:50.630Z,101508.83
2022-10-18T06:02:55.246Z,101512.14
2022-10-18T06:08:00.871Z,101512.89
2022-10-18T06:13:03.529Z,101521.23
2022-10-18T06:18:06.722Z,101523.98
2022-10-18T06:23:10.378Z,101524.60
2022-10-18T06:28:13.346Z,101523.41
2022-10-18T06:33:16.397Z,101529.91
2022-10-18T06:38:19.109Z,101529.77
2022-10-18T06:43:22.374Z,101529.50
2022-10-18T06:48:26.049Z,101531.52
2022-10-18T06:53:36.256Z,101530.90
2022-10-18T06:58:42.190Z,101526.17
2022-10-18T07:03:46.102Z,101528.75
2022-10-18T07:08:49.769Z,101523.86
2022-10-18T07:14:00.351Z,101524.55
2022-10-18T07:19:03.360Z,101522.17
2022-10-18T07:24:07.243Z,101523.98
2022-10-18T07:29:11.660Z,101516.56
2022-10-18T07:34:14.428Z,101519.32
2022-10-18T07:39:17.113Z,101531.16
2022-10-18T07:44:19.880Z,101529.57
2022-10-18T07:49:22.637Z,101523.70
2022-10-18T07:54:25.288Z,101518.31
2022-10-18T07:59:27.987Z,101513.83
2022-10-18T08:04:30.669Z,101513.85
2022-10-18T08:09:33.333Z,101504.18
2022-10-18T08:14:36.170Z,101496.30
2022-10-18T08:19:44.654Z,101494.78
2022-10-18T08:24:55.668Z,101497.52
2022-10-18T08:29:59.883Z,101493.21
2022-10-18T08:35:04.532Z,101485.27
2022-10-18T08:40:13.395Z,101478.75
2022-10-18T08:45:30.020Z,101487.34
2022-10-18T08:50:39.296Z,101476.52
2022-10-18T08:55:52.607Z,101474.71
2022-10-18T09:01:49.776Z,101477.23
2022-10-18T09:07:53.848Z,101475.58
2022-10-18T09:13:21.523Z,101472.41
2022-10-18T09:18:52.270Z,101477.54
2022-10-18T09:24:38.623Z,101469.90
2022-10-18T09:30:08.372Z,101460.25
2022-10-18T09:35:21.870Z,101461.24
2022-10-18T09:40:28.270Z,101454.95
2022-10-18T09:45:37.833Z,101449.07
2022-10-18T09:50:44.577Z,101439.71
2022-10-18T09:56:26.202Z,101433.17
2022-10-18T10:01:30.526Z,101421.19
2022-10-18T10:06:38.932Z,101410.20
2022-10-18T10:11:47.423Z,101399.06
2022-10-18T10:16:59.273Z,101396.32
2022-10-18T10:22:12.992Z,101390.77
2022-10-18T10:27:29.640Z,101384.98
2022-10-18T10:32:46.643Z,101378.09
2022-10-18T10:37:53.428Z,101362.67
2022-10-18T10:43:18.270Z,101356.34
2022-10-18T10:48:33.633Z,101342.77
2022-10-18T10:54:02.974Z,101338.88
2022-10-18T10:59:17.667Z,101335.78
2022-10-18T11:04:26.444Z,101319.17
2022-10-18T11:10:10.904Z,101312.23
2022-10-18T11:15:36.660Z,101311.36
2022-10-18T11:20:48.217Z,101306.23
2022-10-18T11:26:12.507Z,101304.80
2022-10-18T11:31:28.274Z,101300.21
2022-10-18T11:36:54.637Z,101300.81
2022-10-18T11:42:16.131Z,101295.38
2022-10-18T11:48:05.939Z,101283.64
2022-10-18T11:53:59.349Z,101275.11
2022-10-18T11:59:26.781Z,101260.19
2022-10-18T12:04:48.997Z,101251.77
2022-10-18T12:10:01.260Z,101244.64
2022-10-18T12:15:13.846Z,101238.64
2022-10-18T12:20:37.070Z,101241.23
2022-10-18T12:25:43.563Z,101235.67
2022-10-18T12:31:06.403Z,101221.80
2022-10-18T12:36:29.069Z,101206.83
2022-10-18T12:41:33.971Z,101197.89
2022-10-18T12:46:46.987Z,101188.00
2022-10-18T12:51:55.022Z,101174.50
2022-10-18T12:56:59.572Z,101168.02
2022-10-18T13:02:05.436Z,101158.39
2022-10-18T13:07:08.313Z,101158.05
2022-10-18T13:12:13.818Z,101156.20
2022-10-18T13:17:41.489Z,101148.73
2022-10-18T13:23:11.849Z,101143.36
2022-10-18T13:28:21.478Z,101140.70
2022-10-18T13:33:51.913Z,101133.46
2022-10-18T13:39:04.911Z,101128.16
2022-10-18T13:44:30.462Z,101117.90
2022-10-18T13:49:39.191Z,101105.30
2022-10-18T13:55:16.402Z,101099.64
2022-10-18T14:00:30.097Z,101095.37
2022-10-18T14:06:26.768Z,101087.66
2022-10-18T14:11:37.241Z,101077.50
2022-10-18T14:17:01.102Z,101071.65
2022-10-18T14:22:19.246Z,101070.50
2022-10-18T14:27:26.719Z,101064.16
2022-10-18T14:32:30.558Z,101055.01
2022-10-18T14:37:40.845Z,101048.16
2022-10-18T14:42:48.408Z,101036.26
2022-10-18T14:47:52.213Z,101024.98
2022-10-18T14:52:54.836Z,101017.04
2022-10-18T14:57:58.602Z,101019.37
2022-10-18T15:03:03.771Z,101017.48
2022-10-18T15:08:06.692Z,101019.42
2022-10-18T15:13:16.435Z,101016.48
2022-10-18T15:18:25.591Z,101017.70
2022-10-18T15:23:31.289Z,101015.30
2022-10-18T15:28:51.053Z,101008.72
2022-10-18T15:33:55.552Z,101007.45
2022-10-18T15:39:16.744Z,101006.32
2022-10-18T15:44:28.011Z,101009.21
2022-10-18T15:49:56.231Z,101013.83
2022-10-18T15:55:02.000Z,101022.97
2022-10-18T16:00:07.678Z,101031.20
2022-10-18T16:05:16.693Z,101054.77
2022-10-18T16:10:19.442Z,101082.71
2022-10-18T16:15:22.080Z,101087.33
2022-10-18T16:20:25.113Z,101120.88
2022-10-18T16:25:27.851Z,101122.00
2022-10-18T16:30:30.623Z,101117.33
2022-10-18T16:35:35.628Z,101100.67
2022-10-18T16:40:41.139Z,101089.77
2022-10-18T16:45:44.417Z,101092.91
2022-10-18T16:50:47.911Z,101102.40
2022-10-18T16:56:18.409Z,101088.95
2022-10-18T17:01:22.438Z,101097.45
2022-10-18T17:06:28.260Z,101127.02
2022-10-18T17:11:31.052Z,101133.38
2022-10-18T17:16:35.220Z,101122.73
2022-10-18T17:21:37.960Z,101141.73
2022-10-18T17:26:42.518Z,101145.13
2022-10-18T17:31:45.228Z,101134.88
2022-10-18T17:36:47.974Z,101139.21
2022-10-18T17:41:50.988Z,101150.90
2022-10-18T17:46:54.122Z,101154.52
2022-10-18T17:51:57.118Z,101137.02
2022-10-18T17:56:59.814Z,101148.26
2022-10-18T18:02:02.553Z,101161.70
2022-10-18T18:07:05.215Z,101197.90
2022-10-18T18:12:07.830Z,101195.40
2022-10-18T18:17:10.503Z,101185.88
2022-10-18T18:22:14.153Z,101171.11
2022-10-18T18:27:16.786Z,101156.61
2022-10-18T18:32:19.507Z,101154.85
2022-10-18T18:37:22.309Z,101156.02
2022-10-18T18:42:25.106Z,101134.79
2022-10-18T18:47:28.158Z,101112.27
2022-10-18T18:52:31.205Z,101124.26
2022-10-18T18:57:34.352Z,101127.50
2022-10-18T19:02:37.236Z,101147.63
2022-10-18T19:07:39.946Z,101162.77
2022-10-18T19:12:42.681Z,101182.08
2022-10-18T19:17:45.438Z,101185.76
2022-10-18T19:22:48.215Z,101191.19
2022-10-18T19:27:50.915Z,101182.80
2022-10-18T19:33:01.136Z,101189.45
2022-10-18T19:38:06.192Z,101191.83
2022-10-18T19:43:08.855Z,101189.57
2022-10-18T19:48:13.520Z,101192.04
2022-10-18T19:53:24.765Z,101188.35
2022-10-18T19:59:07.151Z,101175.77
2022-10-18T20:04:10.679Z,101169.83
2022-10-18T20:09:19.397Z,101180.98
2022-10-18T20:14:24.302Z,101176.77
2022-10-18T20:19:27.056Z,101165.11
2022-10-18T20:24:41.115Z,101163.39
2022-10-18T20:29:47.150Z,101163.02
2022-10-18T20:34:52.890Z,101158.77
2022-10-18T20:39:55.749Z,101161.73
2022-10-18T20:44:59.441Z,101157.54
2022-10-18T20:50:05.568Z,101159.59
2022-10-18T20:55:13.130Z,101161.36
2022-10-18T21:00:21.543Z,101163.91
2022-10-18T21:05:24.608Z,101163.14
2022-10-18T21:10:27.435Z,101162.31
2022-10-18T21:15:33.216Z,101161.69
2022-10-18T21:20:36.682Z,101150.67
2022-10-18T21:25:48.247Z,101147.45
2022-10-18T21:43:13.088Z,101154.55
2022-10-18T21:48:56.531Z,101145.45
2022-10-18T22:55:07.469Z,101136.59
2022-10-18T23:01:35.890Z,101135.05
2022-10-18T23:07:19.204Z,101136.21
2022-10-18T23:12:22.199Z,101131.78
2022-10-18T23:19:06.009Z,101137.28
2022-10-18T23:24:08.892Z,101134.48
2022-10-18T23:29:11.803Z,101128.31
2022-10-18T23:34:15.305Z,101121.13
2022-10-18T23:53:42.457Z,101129.23
